Arthur, North Dakota
Current Conditions -  °F | °C
As of 6:53 PM on Friday 28 Nov 2014 (Local Time) from KFAR Reporting Station
Few Clouds Few Clouds  
Wind Chill:   Ceiling: Unl
Heat Index: 19°   Visibility: 10mi
Dew Point: 11°   Wind: 10mph
Humidity: 71%   Direction: 150°SSE
Pressure: 29.73"   Gusts: NA
Location:  47.1°N, 97.22°W
Report Text: KFAR 290053Z 15009KT 10SM FEW120 M07/M12 A2973 RMK AO2 SLP086 T10721117
Loading
Personal Weather Stations






























Interactive Weather Map New forecast layout! Learn more

10-Day Weather Forecast

Advertisements
Track Severe Weather on mobile